Grand Marais, Minnesota
Current Conditions -  °F | °C
As of 2:53 PM on Sunday 23 Nov 2014 (Local Time) from KCKC Reporting Station
Haze Haze  
Wind Chill: 37°   Ceiling: 500
Heat Index: 37°   Visibility: 5mi
Dew Point: 36°   Wind: 3mph
Humidity: 93%   Direction: 170°S
Pressure: 29.37"   Gusts: NA
Location:  47.75°N, 90.33°W
Report Text: KCKC 232053Z AUTO 17003KT 5SM BR BKN005 03/02 A2937 RMK AO2 P0003
Loading
Personal Weather Stations






























Interactive Weather Map New forecast layout! Learn more

10-Day Weather Forecast

Advertisements
Track Severe Weather on mobile